Time;durP1;ratioP1;P1;durP2;ratioP2;P2;SDS_P1;SDS_P2;PMS_P1;PMS_P2;Temp;Humidity;BMP_temperature;BMP_pressure;BME280_temperature;BME280_humidity;BME280_pressure;Samples;Min_cycle;Max_cycle;Signal;HPM_P1;HPM_P2
2022/01/30 00:01:49;;;;;;;2.20;1.50;;;;;;;;;;5055501;28;20429;-82
2022/01/30 00:04:15;;;;;;;2.30;1.30;;;;;;;;;;5057415;28;20410;-82
2022/01/30 00:06:42;;;;;;;4.13;1.80;;;;;;;;;;5066344;28;20885;-81
2022/01/30 00:09:14;;;;;;;2.30;1.37;;;;;;;;;;5068076;28;20414;-81
2022/01/30 00:11:42;;;;;;;1.77;1.33;;;;;;;;;;5059849;28;20422;-83
2022/01/30 00:14:12;;;;;;;2.27;1.90;;;;;;;;;;5057481;28;20529;-82
2022/01/30 00:16:38;;;;;;;2.67;1.93;;;;;;;;;;5058175;28;20414;-82
2022/01/30 00:21:36;;;;;;;2.27;1.50;;;;;;;;;;5057478;28;20417;-82
2022/01/30 00:24:18;;;;;;;2.83;1.73;;;;;;;;;;5056979;28;20440;-82
2022/01/30 00:26:46;;;;;;;3.40;1.70;;;;;;;;;;5055729;28;20406;-82
2022/01/30 00:29:12;;;;;;;2.00;1.50;;;;;;;;;;5056967;28;20890;-83
2022/01/30 00:31:39;;;;;;;1.97;1.30;;;;;;;;;;5056448;28;20418;-83
2022/01/30 00:34:05;;;;;;;2.60;1.20;;;;;;;;;;5056608;28;20453;-83
2022/01/30 00:36:31;;;;;;;2.53;1.30;;;;;;;;;;5056417;28;20414;-83
2022/01/30 00:39:00;;;;;;;1.93;1.50;;;;;;;;;;5056646;28;20769;-83
2022/01/30 00:41:27;;;;;;;2.00;1.30;;;;;;;;;;5011126;28;1315496;-83
2022/01/30 00:43:53;;;;;;;2.70;1.40;;;;;;;;;;5056690;28;20290;-83
2022/01/30 00:46:19;;;;;;;2.30;1.30;;;;;;;;;;5056910;28;20418;-83
2022/01/30 00:48:45;;;;;;;3.10;1.40;;;;;;;;;;5059842;28;20498;-82
2022/01/30 00:51:12;;;;;;;1.60;1.37;;;;;;;;;;5057192;28;20426;-83
2022/01/30 00:53:38;;;;;;;2.10;1.50;;;;;;;;;;5056687;28;20406;-83
2022/01/30 00:56:04;;;;;;;1.50;1.10;;;;;;;;;;5056685;28;20890;-83
2022/01/30 00:58:30;;;;;;;1.50;1.20;;;;;;;;;;5056827;28;20422;-82
2022/01/30 01:00:56;;;;;;;1.47;1.03;;;;;;;;;;5057454;28;20418;-82
2022/01/30 01:03:22;;;;;;;2.47;1.40;;;;;;;;;;5056822;28;20898;-82
2022/01/30 01:05:49;;;;;;;2.10;1.50;;;;;;;;;;5056957;28;20440;-83
2022/01/30 01:08:34;;;;;;;1.50;1.23;;;;;;;;;;5056527;28;20743;-82
2022/01/30 01:24:38;;;;;;;1.43;1.00;;;;;;;;;;5056998;28;20750;-82
2022/01/30 01:27:04;;;;;;;1.70;1.20;;;;;;;;;;5056291;28;20424;-82
2022/01/30 01:29:30;;;;;;;1.40;1.00;;;;;;;;;;5056971;28;20401;-83
2022/01/30 01:31:56;;;;;;;1.50;1.17;;;;;;;;;;5057040;28;20424;-82
2022/01/30 01:36:51;;;;;;;1.70;1.20;;;;;;;;;;5057361;28;20405;-82
2022/01/30 01:39:17;;;;;;;1.80;1.20;;;;;;;;;;5056535;28;20417;-82
2022/01/30 01:41:43;;;;;;;2.00;1.30;;;;;;;;;;5054992;28;20468;-82
2022/01/30 01:44:16;;;;;;;2.90;1.00;;;;;;;;;;5056263;28;20406;-82
2022/01/30 01:46:43;;;;;;;1.60;1.30;;;;;;;;;;5056334;28;20492;-81
2022/01/30 01:49:15;;;;;;;1.60;1.23;;;;;;;;;;5054458;28;20985;-81
2022/01/30 01:51:47;;;;;;;3.07;1.50;;;;;;;;;;5056206;28;20516;-82
2022/01/30 01:54:13;;;;;;;1.40;1.07;;;;;;;;;;5056210;28;20503;-82
2022/01/30 01:56:39;;;;;;;1.50;1.20;;;;;;;;;;5056121;28;20416;-81
2022/01/30 01:59:06;;;;;;;2.60;1.20;;;;;;;;;;5059176;28;20394;-83
2022/01/30 02:01:32;;;;;;;2.03;1.03;;;;;;;;;;5060519;28;20429;-81
2022/01/30 02:03:58;;;;;;;1.50;1.00;;;;;;;;;;5061331;28;20937;-81
2022/01/30 02:06:26;;;;;;;1.80;1.10;;;;;;;;;;5060891;28;20741;-82
2022/01/30 02:09:01;;;;;;;2.33;1.20;;;;;;;;;;5059754;28;20410;-82
2022/01/30 02:11:38;;;;;;;1.80;1.00;;;;;;;;;;5059506;28;20433;-81
2022/01/30 02:26:58;;;;;;;1.80;1.20;;;;;;;;;;5065906;28;20440;-80
2022/01/30 02:29:25;;;;;;;1.87;1.20;;;;;;;;;;5067571;28;20429;-82
2022/01/30 02:31:55;;;;;;;2.63;1.33;;;;;;;;;;5055712;28;20458;-81
2022/01/30 02:34:24;;;;;;;1.40;1.00;;;;;;;;;;5056328;28;20484;-80
2022/01/30 02:36:51;;;;;;;1.43;0.90;;;;;;;;;;5056891;28;20403;-81
2022/01/30 02:39:19;;;;;;;1.50;1.00;;;;;;;;;;5057759;28;20394;-81
2022/01/30 02:41:45;;;;;;;1.57;1.10;;;;;;;;;;5058021;28;20445;-81
2022/01/30 02:47:00;;;;;;;1.30;0.80;;;;;;;;;;5058557;28;20824;-82
2022/01/30 02:49:41;;;;;;;1.60;1.10;;;;;;;;;;5058735;28;20735;-82
2022/01/30 02:52:08;;;;;;;1.77;1.10;;;;;;;;;;5058845;28;20424;-82
2022/01/30 02:54:34;;;;;;;1.70;1.20;;;;;;;;;;5058557;28;20453;-82
2022/01/30 02:57:00;;;;;;;1.67;1.10;;;;;;;;;;5057799;28;20425;-82
2022/01/30 02:59:27;;;;;;;2.50;1.00;;;;;;;;;;5059169;28;20402;-81
2022/01/30 03:01:53;;;;;;;1.63;1.20;;;;;;;;;;5058936;28;20976;-82
2022/01/30 03:04:19;;;;;;;1.50;0.90;;;;;;;;;;5057460;28;20406;-81
2022/01/30 03:06:46;;;;;;;1.70;1.00;;;;;;;;;;5060722;28;20410;-80
2022/01/30 03:09:12;;;;;;;1.40;0.90;;;;;;;;;;5068188;28;20428;-80
2022/01/30 03:11:38;;;;;;;1.30;0.97;;;;;;;;;;5066754;28;20432;-82
2022/01/30 03:14:05;;;;;;;1.40;0.93;;;;;;;;;;5058471;28;20453;-82
2022/01/30 03:16:31;;;;;;;1.40;1.00;;;;;;;;;;5058966;28;20775;-82
2022/01/30 03:18:57;;;;;;;1.60;1.00;;;;;;;;;;5057294;28;20497;-82
2022/01/30 03:21:23;;;;;;;1.50;0.93;;;;;;;;;;5059450;28;20418;-82
2022/01/30 03:23:49;;;;;;;1.70;1.00;;;;;;;;;;5059356;28;20398;-82
2022/01/30 03:26:16;;;;;;;1.97;1.20;;;;;;;;;;5058976;28;20409;-82
2022/01/30 03:28:44;;;;;;;1.50;1.07;;;;;;;;;;5058752;28;20467;-82
2022/01/30 03:31:12;;;;;;;1.90;1.20;;;;;;;;;;5056308;28;20773;-82
2022/01/30 03:33:39;;;;;;;2.00;1.10;;;;;;;;;;5058152;28;20405;-82
2022/01/30 03:36:05;;;;;;;2.20;1.10;;;;;;;;;;5057789;28;20410;-82
2022/01/30 03:38:31;;;;;;;2.13;1.20;;;;;;;;;;5058681;28;20401;-80
2022/01/30 03:40:57;;;;;;;1.80;1.10;;;;;;;;;;5059535;28;20459;-82
2022/01/30 03:43:24;;;;;;;1.70;1.20;;;;;;;;;;5058466;28;20402;-82
2022/01/30 03:45:50;;;;;;;1.47;1.13;;;;;;;;;;5057923;28;20402;-82
2022/01/30 03:48:16;;;;;;;3.47;1.33;;;;;;;;;;5058005;28;20430;-82
2022/01/30 03:50:43;;;;;;;2.47;1.00;;;;;;;;;;5057051;28;20440;-82
2022/01/30 03:53:09;;;;;;;1.77;1.10;;;;;;;;;;5058430;28;20420;-82
2022/01/30 03:55:36;;;;;;;2.17;1.17;;;;;;;;;;5056436;28;20977;-82
2022/01/30 03:58:02;;;;;;;1.57;1.13;;;;;;;;;;5058183;28;20386;-82
2022/01/30 04:00:28;;;;;;;1.50;1.10;;;;;;;;;;5057298;28;20405;-82
2022/01/30 04:02:55;;;;;;;2.00;1.27;;;;;;;;;;5050260;28;20454;-82
2022/01/30 04:05:21;;;;;;;1.63;1.20;;;;;;;;;;5063087;28;20410;-82
2022/01/30 04:07:47;;;;;;;1.60;1.20;;;;;;;;;;5057555;28;20471;-82
2022/01/30 04:10:14;;;;;;;2.13;1.47;;;;;;;;;;5056784;28;20428;-82
2022/01/30 04:12:40;;;;;;;1.77;1.20;;;;;;;;;;5057695;28;20406;-82
2022/01/30 04:15:07;;;;;;;2.73;1.30;;;;;;;;;;5056082;28;20453;-82
2022/01/30 04:17:33;;;;;;;1.53;1.03;;;;;;;;;;5056291;28;20417;-80
2022/01/30 04:19:59;;;;;;;3.17;1.40;;;;;;;;;;5058055;28;20770;-82
2022/01/30 04:22:26;;;;;;;2.00;1.40;;;;;;;;;;5057718;28;20432;-82
2022/01/30 04:24:52;;;;;;;2.47;1.13;;;;;;;;;;5058125;28;20408;-82
2022/01/30 04:27:20;;;;;;;1.80;1.37;;;;;;;;;;5056216;28;20497;-82
2022/01/30 04:29:46;;;;;;;1.77;1.30;;;;;;;;;;5058619;28;20411;-82
2022/01/30 04:32:13;;;;;;;1.90;1.40;;;;;;;;;;5058464;28;20438;-82
2022/01/30 04:34:41;;;;;;;2.43;1.90;;;;;;;;;;5057477;28;20522;-82
2022/01/30 04:37:16;;;;;;;2.40;1.50;;;;;;;;;;5058098;28;20397;-82
2022/01/30 05:13:23;;;;;;;;;;;;;;;;;;;;;
2022/01/30 05:22:14;;;;;;;;;;;;;;;;;;;;;
2022/01/30 06:17:55;;;;;;;;;;;;;;;;;;;;;
2022/01/30 07:04:57;;;;;;;3.60;2.67;;;;;;;;;;5035669;28;20497;-80
2022/01/30 07:52:38;;;;;;;3.70;1.97;;;;;;;;;;4928218;29;20488;-81
2022/01/30 08:49:09;;;;;;;1.73;1.43;;;;;;;;;;4962029;28;20473;-82
2022/01/30 08:51:57;;;;;;;2.40;1.40;;;;;;;;;;5005928;28;20431;-81
2022/01/30 08:54:28;;;;;;;7.20;2.00;;;;;;;;;;5032285;28;20462;-81
2022/01/30 08:57:01;;;;;;;2.80;1.27;;;;;;;;;;5035789;28;20557;-82
2022/01/30 08:59:33;;;;;;;3.20;1.80;;;;;;;;;;5037934;28;20422;-82
2022/01/30 09:01:59;;;;;;;2.03;1.60;;;;;;;;;;5039241;28;20422;-81
2022/01/30 09:04:27;;;;;;;2.80;1.60;;;;;;;;;;5037877;28;20492;-82
2022/01/30 09:07:03;;;;;;;6.10;1.80;;;;;;;;;;5034871;28;20426;-81
2022/01/30 09:18:51;;;;;;;3.47;1.87;;;;;;;;;;5017439;28;20924;-81
2022/01/30 09:21:46;;;;;;;5.10;1.67;;;;;;;;;;5017613;28;20514;-81
2022/01/30 09:24:23;;;;;;;6.33;2.17;;;;;;;;;;4974894;28;20784;-80
2022/01/30 09:27:13;;;;;;;4.20;1.70;;;;;;;;;;4996288;28;20419;-81
2022/01/30 09:29:47;;;;;;;3.20;2.17;;;;;;;;;;5017126;28;20430;-81
2022/01/30 09:32:37;;;;;;;4.77;1.50;;;;;;;;;;5007213;28;20431;-81
2022/01/30 09:35:53;;;;;;;3.27;1.87;;;;;;;;;;5017664;28;20475;-81
2022/01/30 09:38:46;;;;;;;5.60;2.00;;;;;;;;;;5017062;28;20404;-81
2022/01/30 09:41:38;;;;;;;9.87;3.43;;;;;;;;;;5017010;28;20419;-81
2022/01/30 09:44:35;;;;;;;;;;;;;;;;;;;;;
2022/01/30 09:47:13;;;;;;;11.73;2.60;;;;;;;;;;5014798;28;20436;-81
2022/01/30 09:53:42;;;;;;;3.50;1.60;;;;;;;;;;4930193;29;20910;-81
2022/01/30 09:56:19;;;;;;;16.83;2.80;;;;;;;;;;5019140;28;20481;-79
2022/01/30 09:59:21;;;;;;;8.93;2.80;;;;;;;;;;5017605;28;20874;-79
2022/01/30 10:02:16;;;;;;;;;;;;;;;;;;;;;
2022/01/30 10:14:36;;;;;;;9.33;2.60;;;;;;;;;;4882159;29;20940;-80
2022/01/30 10:33:22;;;;;;;7.80;2.40;;;;;;;;;;5039249;28;20486;-80
2022/01/30 10:35:58;;;;;;;5.13;3.07;;;;;;;;;;5030760;28;20489;-80
2022/01/30 10:44:09;;;;;;;12.70;3.60;;;;;;;;;;5056433;28;20473;-80
2022/01/30 10:46:48;;;;;;;6.97;2.20;;;;;;;;;;5042937;28;20553;-80
2022/01/30 10:49:15;;;;;;;5.43;2.10;;;;;;;;;;5039024;28;20412;-81
2022/01/30 10:51:51;;;;;;;6.77;2.77;;;;;;;;;;5037434;28;20403;-81
2022/01/30 10:54:17;;;;;;;6.63;2.33;;;;;;;;;;5018420;28;20454;-81
2022/01/30 10:56:43;;;;;;;7.80;2.63;;;;;;;;;;5019415;28;20414;-81
2022/01/30 10:59:14;;;;;;;3.40;2.53;;;;;;;;;;5019264;28;20423;-81
2022/01/30 11:01:47;;;;;;;13.13;2.73;;;;;;;;;;5019155;28;20481;-81
2022/01/30 11:04:32;;;;;;;5.50;2.57;;;;;;;;;;5019525;28;20468;-81
2022/01/30 11:07:04;;;;;;;8.30;2.63;;;;;;;;;;5019491;28;20426;-79
2022/01/30 11:09:38;;;;;;;5.97;2.40;;;;;;;;;;5020979;28;20404;-81
2022/01/30 11:12:08;;;;;;;5.67;2.53;;;;;;;;;;5019850;28;20435;-80
2022/01/30 11:15:16;;;;;;;16.63;3.37;;;;;;;;;;5018981;28;20448;-82
2022/01/30 11:17:26;;;;;;;7.03;2.33;;;;;;;;;;5018392;28;20762;-80
2022/01/30 11:19:53;;;;;;;4.70;2.37;;;;;;;;;;5019301;28;20411;-81
2022/01/30 11:22:20;;;;;;;8.10;2.27;;;;;;;;;;5019100;28;20439;-80
2022/01/30 11:24:47;;;;;;;4.30;2.10;;;;;;;;;;5018582;28;20493;-80
2022/01/30 11:27:21;;;;;;;7.33;2.80;;;;;;;;;;5019182;28;20407;-82
2022/01/30 11:29:47;;;;;;;5.20;2.33;;;;;;;;;;5016251;28;20443;-82
2022/01/30 11:32:14;;;;;;;10.20;3.03;;;;;;;;;;5017558;28;20424;-81
2022/01/30 11:34:41;;;;;;;5.10;2.13;;;;;;;;;;5017518;28;20458;-82
2022/01/30 11:37:08;;;;;;;5.03;2.40;;;;;;;;;;5018094;28;20411;-82
2022/01/30 11:39:36;;;;;;;7.40;2.57;;;;;;;;;;5018720;28;20403;-82
2022/01/30 11:42:08;;;;;;;8.20;3.00;;;;;;;;;;5017652;28;20546;-82
2022/01/30 11:44:34;;;;;;;6.80;2.70;;;;;;;;;;5019114;28;20422;-82
2022/01/30 11:47:00;;;;;;;2.90;1.87;;;;;;;;;;5018179;28;20419;-82
2022/01/30 11:49:38;;;;;;;12.07;2.30;;;;;;;;;;5018974;28;20407;-83
2022/01/30 11:52:06;;;;;;;4.40;2.13;;;;;;;;;;5018342;28;20436;-82
2022/01/30 11:54:32;;;;;;;4.13;2.00;;;;;;;;;;5017982;28;20519;-82
2022/01/30 11:56:58;;;;;;;7.10;2.50;;;;;;;;;;5018771;28;20493;-82
2022/01/30 11:59:36;;;;;;;7.57;3.23;;;;;;;;;;5017194;28;20947;-81
2022/01/30 12:02:21;;;;;;;4.70;1.83;;;;;;;;;;5019172;28;20928;-82
2022/01/30 12:05:00;;;;;;;11.67;3.37;;;;;;;;;;5021959;28;20409;-80
2022/01/30 12:07:35;;;;;;;9.43;2.77;;;;;;;;;;5026747;28;20415;-81
2022/01/30 12:10:30;;;;;;;2.40;1.70;;;;;;;;;;5022049;28;20419;-82
2022/01/30 12:13:04;;;;;;;7.57;2.17;;;;;;;;;;5006689;28;20466;-82
2022/01/30 12:15:39;;;;;;;3.77;1.80;;;;;;;;;;5019177;28;20432;-81
2022/01/30 12:18:05;;;;;;;3.97;1.83;;;;;;;;;;5018733;28;20403;-82
2022/01/30 12:20:52;;;;;;;8.90;2.40;;;;;;;;;;5017569;28;20407;-81
2022/01/30 12:23:27;;;;;;;3.80;2.23;;;;;;;;;;5007150;28;20440;-81
2022/01/30 12:25:56;;;;;;;7.63;2.37;;;;;;;;;;5018167;28;20399;-80
2022/01/30 12:28:39;;;;;;;5.57;2.77;;;;;;;;;;5019252;28;20412;-80
2022/01/30 12:31:23;;;;;;;6.00;1.97;;;;;;;;;;5020785;28;20404;-80
2022/01/30 12:33:57;;;;;;;8.10;2.30;;;;;;;;;;5018314;28;20438;-81
2022/01/30 12:36:23;;;;;;;5.30;2.10;;;;;;;;;;5018310;28;20510;-81
2022/01/30 12:38:54;;;;;;;8.30;2.33;;;;;;;;;;5019052;28;20416;-82
2022/01/30 12:41:21;;;;;;;7.83;2.37;;;;;;;;;;5018973;28;20407;-80
2022/01/30 12:43:54;;;;;;;15.40;2.80;;;;;;;;;;5017123;28;20431;-81
2022/01/30 12:46:22;;;;;;;6.27;2.10;;;;;;;;;;5017749;28;20397;-82
2022/01/30 12:49:07;;;;;;;10.27;2.43;;;;;;;;;;5016203;28;20470;-81
2022/01/30 12:51:34;;;;;;;8.03;2.57;;;;;;;;;;5016164;28;20780;-80
2022/01/30 12:54:01;;;;;;;10.80;2.73;;;;;;;;;;5017535;28;20407;-81
2022/01/30 12:56:27;;;;;;;6.73;2.47;;;;;;;;;;5017232;28;20400;-80
2022/01/30 12:58:59;;;;;;;9.63;2.70;;;;;;;;;;5015736;28;20577;-79
2022/01/30 13:01:28;;;;;;;15.20;3.33;;;;;;;;;;5016908;28;20410;-80
2022/01/30 13:04:01;;;;;;;6.93;2.33;;;;;;;;;;5017700;28;20423;-81
2022/01/30 13:06:32;;;;;;;5.83;2.10;;;;;;;;;;5023494;28;20415;-81
2022/01/30 13:08:58;;;;;;;9.70;2.47;;;;;;;;;;5022586;28;20411;-82
2022/01/30 13:11:24;;;;;;;4.70;2.20;;;;;;;;;;5022907;28;20418;-81
2022/01/30 13:13:55;;;;;;;5.13;2.10;;;;;;;;;;5022417;28;20415;-82
2022/01/30 13:16:38;;;;;;;5.03;2.50;;;;;;;;;;5018506;28;20445;-79
2022/01/30 13:19:06;;;;;;;4.03;2.00;;;;;;;;;;5016460;28;20407;-81
2022/01/30 13:21:33;;;;;;;3.67;1.77;;;;;;;;;;5025492;28;20403;-80
2022/01/30 13:23:59;;;;;;;4.90;2.90;;;;;;;;;;5021580;28;20461;-80
2022/01/30 13:26:39;;;;;;;6.20;2.73;;;;;;;;;;5021515;28;20412;-81
2022/01/30 13:29:09;;;;;;;5.40;3.00;;;;;;;;;;5017265;28;20403;-81
2022/01/30 13:31:37;;;;;;;5.77;2.77;;;;;;;;;;5015422;28;20399;-81
2022/01/30 13:34:07;;;;;;;4.43;2.27;;;;;;;;;;5016005;28;20443;-81
2022/01/30 13:36:34;;;;;;;5.33;1.93;;;;;;;;;;5018359;28;20504;-81
2022/01/30 13:39:05;;;;;;;5.00;2.87;;;;;;;;;;5036199;28;20486;-80
2022/01/30 13:41:34;;;;;;;5.00;2.37;;;;;;;;;;5038124;28;20403;-82
2022/01/30 13:44:00;;;;;;;5.73;2.20;;;;;;;;;;5036959;28;21104;-80
2022/01/30 13:49:12;;;;;;;7.23;1.90;;;;;;;;;;5037834;28;20601;-81
2022/01/30 13:51:38;;;;;;;7.40;2.37;;;;;;;;;;5037032;28;20422;-81
2022/01/30 13:54:13;;;;;;;5.40;1.83;;;;;;;;;;5039016;28;20422;-80
2022/01/30 13:56:39;;;;;;;3.07;1.80;;;;;;;;;;5041364;28;20490;-80
2022/01/30 13:59:05;;;;;;;5.57;1.90;;;;;;;;;;5041586;28;20437;-81
2022/01/30 14:01:33;;;;;;;7.00;2.00;;;;;;;;;;5041180;28;20422;-81
2022/01/30 14:04:07;;;;;;;13.90;2.53;;;;;;;;;;5033109;28;20992;-82
2022/01/30 14:06:35;;;;;;;7.07;2.30;;;;;;;;;;5042672;28;20508;-82
2022/01/30 14:09:02;;;;;;;4.60;1.83;;;;;;;;;;5041675;28;20433;-82
2022/01/30 14:11:31;;;;;;;4.23;1.90;;;;;;;;;;5041127;28;20948;-82
2022/01/30 14:14:08;;;;;;;6.17;2.60;;;;;;;;;;5040794;28;20453;-81
2022/01/30 14:16:43;;;;;;;9.60;2.63;;;;;;;;;;5040991;28;20498;-82
2022/01/30 14:19:30;;;;;;;5.90;3.03;;;;;;;;;;5040760;28;20438;-82
2022/01/30 14:21:57;;;;;;;3.87;2.23;;;;;;;;;;5037888;28;20446;-82
2022/01/30 14:24:29;;;;;;;3.77;2.30;;;;;;;;;;5044750;28;20418;-82
2022/01/30 14:27:05;;;;;;;10.57;2.40;;;;;;;;;;5038623;28;20426;-82
2022/01/30 14:29:31;;;;;;;4.80;2.37;;;;;;;;;;5020744;28;20414;-81
2022/01/30 14:32:02;;;;;;;7.57;2.53;;;;;;;;;;5033142;28;20457;-81
2022/01/30 14:34:29;;;;;;;3.17;1.90;;;;;;;;;;5039983;28;20450;-82
2022/01/30 14:36:59;;;;;;;5.90;2.10;;;;;;;;;;5039129;28;20426;-81
2022/01/30 14:39:25;;;;;;;6.47;2.30;;;;;;;;;;5020107;28;20380;-82
2022/01/30 14:41:52;;;;;;;4.80;2.37;;;;;;;;;;5037231;28;20480;-82
2022/01/30 14:44:19;;;;;;;6.37;2.70;;;;;;;;;;5040452;28;20407;-81
2022/01/30 14:46:45;;;;;;;6.23;2.40;;;;;;;;;;5040766;28;20405;-81
2022/01/30 14:49:12;;;;;;;5.83;2.40;;;;;;;;;;5040641;28;20411;-80
2022/01/30 14:51:38;;;;;;;6.33;2.23;;;;;;;;;;5036871;28;20419;-80
2022/01/30 14:54:04;;;;;;;7.73;2.40;;;;;;;;;;5035951;28;20422;-80
2022/01/30 14:56:30;;;;;;;4.40;1.90;;;;;;;;;;5038390;28;20406;-79
2022/01/30 14:58:56;;;;;;;4.20;2.27;;;;;;;;;;5036614;28;20446;-80
2022/01/30 15:01:22;;;;;;;4.70;2.10;;;;;;;;;;5040569;28;20418;-79
2022/01/30 15:03:48;;;;;;;6.07;2.50;;;;;;;;;;5043970;28;20441;-79
2022/01/30 15:06:14;;;;;;;5.20;2.73;;;;;;;;;;5041633;28;20419;-81
2022/01/30 15:08:41;;;;;;;6.93;2.40;;;;;;;;;;5039697;28;20779;-81
2022/01/30 15:11:07;;;;;;;5.97;2.40;;;;;;;;;;5038733;28;20447;-81
2022/01/30 15:13:36;;;;;;;9.87;2.30;;;;;;;;;;5039529;28;20438;-81
2022/01/30 15:16:08;;;;;;;3.90;1.70;;;;;;;;;;5038333;28;20446;-81
2022/01/30 15:18:36;;;;;;;6.77;2.73;;;;;;;;;;5039170;28;20465;-81
2022/01/30 15:21:03;;;;;;;11.20;2.97;;;;;;;;;;5038034;28;21013;-82
2022/01/30 15:23:29;;;;;;;5.63;2.20;;;;;;;;;;5038202;28;20446;-81
2022/01/30 15:25:55;;;;;;;5.50;2.40;;;;;;;;;;5039205;28;20423;-80
2022/01/30 15:28:21;;;;;;;13.87;2.80;;;;;;;;;;5043084;28;20843;-81
2022/01/30 15:30:47;;;;;;;4.53;2.20;;;;;;;;;;5037951;28;20930;-82
2022/01/30 15:33:13;;;;;;;7.60;2.70;;;;;;;;;;5037689;28;20541;-82
2022/01/30 15:35:42;;;;;;;4.10;2.37;;;;;;;;;;5038022;28;20503;-81
2022/01/30 15:38:08;;;;;;;5.63;2.40;;;;;;;;;;5032724;28;20432;-81
2022/01/30 15:40:34;;;;;;;6.43;2.20;;;;;;;;;;5033590;28;20432;-81
2022/01/30 15:43:01;;;;;;;7.60;1.90;;;;;;;;;;5032234;28;20447;-82
2022/01/30 15:50:39;;;;;;;5.40;2.93;;;;;;;;;;5021893;28;20479;-81
2022/01/30 15:53:05;;;;;;;8.33;2.70;;;;;;;;;;5036248;28;20525;-82
2022/01/30 15:55:31;;;;;;;8.13;3.40;;;;;;;;;;5036220;28;20451;-82
2022/01/30 15:57:57;;;;;;;9.10;3.47;;;;;;;;;;5033550;28;20831;-81
2022/01/30 16:00:24;;;;;;;6.60;2.83;;;;;;;;;;5034534;28;20441;-81
2022/01/30 16:02:50;;;;;;;7.73;2.53;;;;;;;;;;5039960;28;20446;-81
2022/01/30 16:05:18;;;;;;;7.73;3.30;;;;;;;;;;5039146;28;20427;-81
2022/01/30 16:07:44;;;;;;;9.40;3.30;;;;;;;;;;5045338;28;20418;-81
2022/01/30 16:10:20;;;;;;;6.23;2.60;;;;;;;;;;5038669;28;20419;-81
2022/01/30 16:17:58;;;;;;;12.03;3.20;;;;;;;;;;5036707;28;20418;-81
2022/01/30 16:20:24;;;;;;;7.27;2.80;;;;;;;;;;5036542;28;20412;-82
2022/01/30 16:22:50;;;;;;;13.20;3.50;;;;;;;;;;5037700;28;20433;-82
2022/01/30 16:25:16;;;;;;;7.67;2.83;;;;;;;;;;5036745;28;20418;-81
2022/01/30 16:27:42;;;;;;;11.90;2.63;;;;;;;;;;5037595;28;20430;-83
2022/01/30 16:30:10;;;;;;;6.00;2.83;;;;;;;;;;5036975;28;20403;-82
2022/01/30 16:32:36;;;;;;;15.00;3.77;;;;;;;;;;5024405;28;20454;-82
2022/01/30 16:35:03;;;;;;;10.50;3.27;;;;;;;;;;5017567;28;20451;-82
2022/01/30 16:37:30;;;;;;;4.30;2.20;;;;;;;;;;5031668;28;20415;-81
2022/01/30 16:39:56;;;;;;;12.13;2.93;;;;;;;;;;5033479;28;20406;-81
2022/01/30 16:42:27;;;;;;;6.40;2.60;;;;;;;;;;5038100;28;20879;-82
2022/01/30 16:45:01;;;;;;;5.47;2.80;;;;;;;;;;5018040;28;20435;-81
2022/01/30 16:47:30;;;;;;;7.60;3.10;;;;;;;;;;5028662;28;20938;-80
2022/01/30 16:49:56;;;;;;;7.43;2.60;;;;;;;;;;5035504;28;20425;-81
2022/01/30 16:52:22;;;;;;;10.50;3.20;;;;;;;;;;5035071;28;20438;-81
2022/01/30 16:54:53;;;;;;;8.23;2.60;;;;;;;;;;5036626;28;20465;-82
2022/01/30 16:57:20;;;;;;;4.70;2.30;;;;;;;;;;5036068;28;20419;-81
2022/01/30 16:59:46;;;;;;;8.70;3.53;;;;;;;;;;5026438;28;20827;-81
2022/01/30 17:02:12;;;;;;;10.60;3.00;;;;;;;;;;5030023;28;20869;-81
2022/01/30 17:04:38;;;;;;;6.87;3.10;;;;;;;;;;5032858;28;20415;-83
2022/01/30 17:07:04;;;;;;;6.47;2.33;;;;;;;;;;5033243;28;20415;-80
2022/01/30 17:09:39;;;;;;;8.53;3.37;;;;;;;;;;5020760;28;20415;-80
2022/01/30 17:12:32;;;;;;;15.57;3.40;;;;;;;;;;5034769;28;20806;-79
2022/01/30 17:14:53;;;;;;;6.83;2.97;;;;;;;;;;5036228;28;20465;-80
2022/01/30 17:17:21;;;;;;;5.23;3.53;;;;;;;;;;5036236;28;20511;-80
2022/01/30 17:19:48;;;;;;;7.83;2.73;;;;;;;;;;5037575;28;20493;-79
2022/01/30 17:22:14;;;;;;;10.20;3.50;;;;;;;;;;5036185;28;20472;-80
2022/01/30 17:24:40;;;;;;;9.70;4.40;;;;;;;;;;5037305;28;20427;-79
2022/01/30 17:27:06;;;;;;;8.37;3.33;;;;;;;;;;5037003;28;20407;-80
2022/01/30 17:29:32;;;;;;;7.90;2.83;;;;;;;;;;5035731;28;20398;-80
2022/01/30 17:31:58;;;;;;;5.07;3.10;;;;;;;;;;5030771;28;20442;-80
2022/01/30 17:34:25;;;;;;;11.43;2.80;;;;;;;;;;5028151;28;20915;-80
2022/01/30 17:36:51;;;;;;;7.37;2.90;;;;;;;;;;5034836;28;20479;-80
2022/01/30 17:39:17;;;;;;;15.90;3.77;;;;;;;;;;5035887;28;20510;-79
2022/01/30 17:41:43;;;;;;;9.60;3.07;;;;;;;;;;5036440;28;20472;-81
2022/01/30 17:44:10;;;;;;;14.33;3.77;;;;;;;;;;5034549;28;20993;-79
2022/01/30 17:46:36;;;;;;;13.03;3.47;;;;;;;;;;5036027;28;20822;-79
2022/01/30 17:49:02;;;;;;;12.13;4.20;;;;;;;;;;5035331;28;20454;-80
2022/01/30 17:51:29;;;;;;;7.77;3.50;;;;;;;;;;5035404;28;20494;-79
2022/01/30 17:53:56;;;;;;;11.63;3.57;;;;;;;;;;5040917;28;20501;-78
2022/01/30 17:56:22;;;;;;;11.13;3.97;;;;;;;;;;5042895;28;20469;-78
2022/01/30 17:58:49;;;;;;;10.47;3.47;;;;;;;;;;5036069;28;20518;-79
2022/01/30 18:01:15;;;;;;;11.63;4.43;;;;;;;;;;5036080;28;20445;-80
2022/01/30 18:03:42;;;;;;;11.83;3.60;;;;;;;;;;5035224;28;20442;-79
2022/01/30 18:06:16;;;;;;;21.87;4.63;;;;;;;;;;5035411;28;20809;-80
2022/01/30 18:08:44;;;;;;;13.13;3.10;;;;;;;;;;5032108;28;20774;-80
2022/01/30 18:11:10;;;;;;;12.13;4.40;;;;;;;;;;5035398;28;20453;-80
2022/01/30 18:13:36;;;;;;;9.40;3.87;;;;;;;;;;5035998;28;20442;-79
2022/01/30 18:16:02;;;;;;;9.67;4.20;;;;;;;;;;5032898;28;20459;-79
2022/01/30 18:18:28;;;;;;;10.47;4.10;;;;;;;;;;5032543;28;20440;-79
2022/01/30 18:20:54;;;;;;;12.37;5.10;;;;;;;;;;5033703;28;20815;-80
2022/01/30 18:23:20;;;;;;;8.23;3.83;;;;;;;;;;5033567;28;20434;-80
2022/01/30 18:25:47;;;;;;;12.33;5.47;;;;;;;;;;5035489;28;20418;-80
2022/01/30 18:28:13;;;;;;;10.67;5.13;;;;;;;;;;5034323;28;20480;-82
2022/01/30 18:30:39;;;;;;;27.40;7.43;;;;;;;;;;5029313;28;20466;-79
2022/01/30 18:33:06;;;;;;;14.50;4.37;;;;;;;;;;5027251;23;20502;-79
2022/01/30 18:35:36;;;;;;;17.90;5.20;;;;;;;;;;5016951;28;21018;-78
2022/01/30 18:38:13;;;;;;;12.13;5.10;;;;;;;;;;5018251;28;20393;-78
2022/01/30 18:40:46;;;;;;;8.87;4.50;;;;;;;;;;5020571;28;20392;-77
2022/01/30 18:43:12;;;;;;;16.50;3.87;;;;;;;;;;5021142;28;20477;-78
2022/01/30 18:45:41;;;;;;;13.70;4.20;;;;;;;;;;5020861;28;20519;-78
2022/01/30 18:48:07;;;;;;;11.23;4.77;;;;;;;;;;5022433;28;20494;-78
2022/01/30 18:50:36;;;;;;;12.07;4.07;;;;;;;;;;5019236;28;20411;-78
2022/01/30 18:53:03;;;;;;;9.37;4.30;;;;;;;;;;5016846;28;20427;-77
2022/01/30 18:55:29;;;;;;;11.87;4.10;;;;;;;;;;5017511;28;20463;-77
2022/01/30 18:57:55;;;;;;;16.10;5.10;;;;;;;;;;5016984;28;20395;-77
2022/01/30 19:00:21;;;;;;;11.23;4.73;;;;;;;;;;5017107;28;20892;-77
2022/01/30 19:02:47;;;;;;;15.77;4.80;;;;;;;;;;5016682;28;20431;-76
2022/01/30 19:05:13;;;;;;;13.93;4.67;;;;;;;;;;5016469;28;20412;-77
2022/01/30 19:07:39;;;;;;;8.27;4.40;;;;;;;;;;5017068;28;20816;-77
2022/01/30 19:10:06;;;;;;;19.37;5.10;;;;;;;;;;5016359;28;20399;-77
2022/01/30 19:12:32;;;;;;;8.47;4.80;;;;;;;;;;5014831;28;20442;-78
2022/01/30 19:14:59;;;;;;;7.17;4.50;;;;;;;;;;5016110;28;20452;-77
2022/01/30 19:17:25;;;;;;;13.37;5.07;;;;;;;;;;5016311;28;20400;-77
2022/01/30 19:19:51;;;;;;;10.90;5.13;;;;;;;;;;5016577;28;20434;-77
2022/01/30 19:22:17;;;;;;;9.17;4.80;;;;;;;;;;5014911;28;20431;-77
2022/01/30 19:24:44;;;;;;;7.60;4.60;;;;;;;;;;5016253;28;20412;-77
2022/01/30 19:27:11;;;;;;;10.50;4.80;;;;;;;;;;5016353;28;20765;-77
2022/01/30 19:29:41;;;;;;;10.23;4.93;;;;;;;;;;5016218;28;20434;-79
2022/01/30 19:32:07;;;;;;;13.60;5.77;;;;;;;;;;5016245;28;20509;-77
2022/01/30 19:34:33;;;;;;;13.13;5.20;;;;;;;;;;5016298;28;20550;-77
2022/01/30 19:36:59;;;;;;;10.30;5.20;;;;;;;;;;5016593;28;20400;-77
2022/01/30 19:39:26;;;;;;;8.87;4.87;;;;;;;;;;5019301;28;20495;-78
2022/01/30 19:41:52;;;;;;;10.03;4.40;;;;;;;;;;5019126;28;20427;-78
2022/01/30 19:44:18;;;;;;;9.53;4.93;;;;;;;;;;5016259;28;20414;-77
2022/01/30 19:46:47;;;;;;;12.37;4.60;;;;;;;;;;5016387;28;20400;-77
2022/01/30 19:49:13;;;;;;;13.10;5.50;;;;;;;;;;5015179;28;20408;-77
2022/01/30 19:51:39;;;;;;;7.00;4.80;;;;;;;;;;5015963;28;20519;-77
2022/01/30 19:54:05;;;;;;;11.97;5.13;;;;;;;;;;5022563;28;20756;-78
2022/01/30 19:56:33;;;;;;;13.13;4.77;;;;;;;;;;5020903;28;20451;-78
2022/01/30 19:59:00;;;;;;;9.00;4.50;;;;;;;;;;5021347;28;20410;-78
2022/01/30 20:01:26;;;;;;;16.10;5.50;;;;;;;;;;5021590;28;20454;-78
2022/01/30 20:03:52;;;;;;;11.53;4.97;;;;;;;;;;5021670;28;20411;-78
2022/01/30 20:06:18;;;;;;;10.47;5.00;;;;;;;;;;5020139;28;20408;-77
2022/01/30 20:08:44;;;;;;;11.33;4.03;;;;;;;;;;5016621;28;20835;-77
2022/01/30 20:11:10;;;;;;;13.10;5.87;;;;;;;;;;5015754;28;20915;-77
2022/01/30 20:13:36;;;;;;;16.60;5.67;;;;;;;;;;5015889;28;20416;-77
2022/01/30 20:16:04;;;;;;;9.13;4.50;;;;;;;;;;5014679;28;21059;-77
2022/01/30 20:18:36;;;;;;;9.17;4.70;;;;;;;;;;5015864;28;20488;-77
2022/01/30 20:21:06;;;;;;;10.00;5.27;;;;;;;;;;5016084;28;20435;-77
2022/01/30 20:23:34;;;;;;;11.57;5.90;;;;;;;;;;5016219;28;20491;-78
2022/01/30 20:26:01;;;;;;;14.13;5.57;;;;;;;;;;5017851;28;20495;-77
2022/01/30 20:28:28;;;;;;;14.97;6.60;;;;;;;;;;5018757;28;20424;-77